createdAt,value
2017-07-11T00:00:43.656Z,89.80
2017-07-11T00:03:11.155Z,90.10
2017-07-11T00:05:38.688Z,90.30
2017-07-11T00:08:06.195Z,90.80
2017-07-11T00:10:33.717Z,90.80
2017-07-11T00:13:01.232Z,90.50
2017-07-11T00:15:29.499Z,90.60
2017-07-11T00:17:57.023Z,90.30
2017-07-11T00:20:24.519Z,90.70
2017-07-11T00:22:52.039Z,90.70
2017-07-11T00:25:19.538Z,91.20
2017-07-11T00:27:47.060Z,91.00
2017-07-11T00:30:14.560Z,90.60
2017-07-11T00:32:42.854Z,90.90
2017-07-11T00:35:10.384Z,90.80
2017-07-11T00:37:37.892Z,91.70
2017-07-11T00:40:05.415Z,91.20
2017-07-11T00:42:33.682Z,91.50
2017-07-11T00:45:01.201Z,91.20
2017-07-11T00:47:28.715Z,91.10
2017-07-11T00:49:56.991Z,90.90
2017-07-11T00:52:24.507Z,90.90
2017-07-11T00:54:52.018Z,90.80
2017-07-11T00:57:19.540Z,90.70
2017-07-11T00:59:47.047Z,90.30
2017-07-11T01:02:14.567Z,90.40
2017-07-11T01:04:42.069Z,90.40
2017-07-11T01:07:09.576Z,90.30
2017-07-11T01:09:37.095Z,90.10
2017-07-11T01:12:04.603Z,90.10
2017-07-11T01:14:32.892Z,89.80
2017-07-11T01:17:00.399Z,90.00
2017-07-11T01:19:27.904Z,89.10
2017-07-11T01:21:55.423Z,89.60
2017-07-11T01:24:22.920Z,89.10
2017-07-11T01:26:50.451Z,88.30
2017-07-11T01:29:17.947Z,87.90
2017-07-11T01:31:46.219Z,88.00
2017-07-11T01:34:13.741Z,88.00
2017-07-11T01:36:41.249Z,87.70
2017-07-11T01:39:08.771Z,86.70
2017-07-11T01:41:36.267Z,86.70
2017-07-11T01:44:03.787Z,86.70
2017-07-11T01:46:31.283Z,85.40
2017-07-11T01:48:58.774Z,85.70
2017-07-11T01:51:26.287Z,82.20
2017-07-11T01:53:53.787Z,82.30
2017-07-11T01:56:21.311Z,82.50
2017-07-11T01:58:48.808Z,81.70
2017-07-11T02:01:16.336Z,81.70
2017-07-11T02:03:43.865Z,81.10
2017-07-11T02:06:11.381Z,81.00
2017-07-11T02:08:38.911Z,79.80
2017-07-11T02:11:06.410Z,80.30
2017-07-11T02:13:33.935Z,80.60
2017-07-11T02:16:01.445Z,79.00
2017-07-11T02:18:28.967Z,79.00
2017-07-11T02:20:56.473Z,77.80
2017-07-11T02:23:23.979Z,76.90
2017-07-11T02:25:51.499Z,76.40
2017-07-11T02:28:19.003Z,76.80
2017-07-11T02:30:46.524Z,77.00
2017-07-11T02:33:14.018Z,77.50
2017-07-11T02:35:41.551Z,76.50
2017-07-11T02:38:09.055Z,77.50
2017-07-11T02:40:36.559Z,77.10
2017-07-11T02:43:04.074Z,76.50
2017-07-11T02:45:31.579Z,77.10
2017-07-11T02:47:59.099Z,77.40
2017-07-11T02:50:26.599Z,77.90
2017-07-11T02:52:54.126Z,77.90
2017-07-11T02:55:22.396Z,78.10
2017-07-11T02:57:50.663Z,78.00
2017-07-11T03:00:18.184Z,77.80
2017-07-11T03:02:45.688Z,77.60
2017-07-11T03:05:13.971Z,78.20
2017-07-11T03:07:41.476Z,78.00
2017-07-11T03:10:09.003Z,78.10
2017-07-11T03:12:36.504Z,78.10
2017-07-11T03:15:04.008Z,77.50
2017-07-11T03:17:31.541Z,78.20
2017-07-11T03:19:59.051Z,78.20
2017-07-11T03:22:26.574Z,78.60
2017-07-11T03:24:54.845Z,79.20
2017-07-11T03:27:22.368Z,79.60
2017-07-11T03:29:49.883Z,78.90
2017-07-11T03:32:18.147Z,79.40
2017-07-11T03:34:46.460Z,79.00
2017-07-11T03:37:13.978Z,79.00
2017-07-11T03:39:41.498Z,79.10
2017-07-11T03:42:09.010Z,80.20
2017-07-11T03:44:36.538Z,78.90
2017-07-11T03:47:04.039Z,79.00
2017-07-11T03:49:31.539Z,79.10
2017-07-11T03:52:00.083Z,79.40
2017-07-11T03:54:27.584Z,79.00
2017-07-11T03:56:55.103Z,79.50
2017-07-11T03:59:22.603Z,79.30
2017-07-11T04:01:50.129Z,78.70
2017-07-11T04:04:17.632Z,79.20
2017-07-11T04:06:45.135Z,79.10
2017-07-11T04:09:12.651Z,79.40
2017-07-11T04:11:40.147Z,79.60
2017-07-11T04:14:07.665Z,79.70
2017-07-11T04:16:35.168Z,78.70
2017-07-11T04:19:02.698Z,78.20
2017-07-11T04:21:30.965Z,73.10
2017-07-11T04:23:58.459Z,73.10
2017-07-11T04:26:25.971Z,69.60
2017-07-11T04:28:53.476Z,69.10
2017-07-11T04:31:20.999Z,68.50
2017-07-11T04:33:48.504Z,67.80
2017-07-11T04:36:16.053Z,68.70
2017-07-11T04:38:43.619Z,71.20
2017-07-11T04:41:11.127Z,72.50
2017-07-11T04:43:38.643Z,73.10
2017-07-11T04:46:06.140Z,73.50
2017-07-11T04:48:33.659Z,73.40
2017-07-11T04:51:01.159Z,72.00
2017-07-11T04:53:28.679Z,71.00
2017-07-11T04:55:56.180Z,69.70
2017-07-11T04:58:24.455Z,73.20
2017-07-11T05:00:51.967Z,72.40
2017-07-11T05:03:19.477Z,74.40
2017-07-11T05:05:47.774Z,75.40
2017-07-11T05:08:15.287Z,75.40
2017-07-11T05:10:42.814Z,74.90
2017-07-11T05:13:10.316Z,75.40
2017-07-11T05:15:37.815Z,75.90
2017-07-11T05:18:05.332Z,75.90
2017-07-11T05:20:32.831Z,76.20
2017-07-11T05:23:00.365Z,76.80
2017-07-11T05:25:28.631Z,74.30
2017-07-11T05:27:56.163Z,74.20
2017-07-11T05:30:23.676Z,73.70
2017-07-11T05:32:51.179Z,74.40
2017-07-11T05:35:18.699Z,74.20
2017-07-11T05:37:46.203Z,75.30
2017-07-11T05:40:13.719Z,75.60
2017-07-11T05:42:41.220Z,75.10
2017-07-11T05:45:08.750Z,74.60
2017-07-11T05:47:36.255Z,75.10
2017-07-11T05:50:04.535Z,74.90
2017-07-11T05:52:32.824Z,74.50
2017-07-11T05:55:00.322Z,74.40
2017-07-11T05:57:27.839Z,73.00
2017-07-11T05:59:56.119Z,73.50
2017-07-11T06:02:23.652Z,73.50
2017-07-11T06:04:51.155Z,73.80
2017-07-11T06:07:18.655Z,73.20
2017-07-11T06:09:46.170Z,72.80
2017-07-11T06:12:13.672Z,72.30
2017-07-11T06:14:41.185Z,72.80
2017-07-11T06:17:08.692Z,72.20
2017-07-11T06:19:36.216Z,70.90
2017-07-11T06:22:03.719Z,71.40
2017-07-11T06:24:31.224Z,70.90
2017-07-11T06:26:58.748Z,70.80
2017-07-11T06:29:26.260Z,70.70
2017-07-11T06:31:53.780Z,70.50
2017-07-11T06:34:21.288Z,69.40
2017-07-11T06:36:48.820Z,68.30
2017-07-11T06:39:16.331Z,68.00
2017-07-11T06:41:44.599Z,66.80
2017-07-11T06:44:12.119Z,66.50
2017-07-11T06:46:39.620Z,65.60
2017-07-11T06:49:07.139Z,65.80
2017-07-11T06:51:34.640Z,66.00
2017-07-11T06:54:02.929Z,66.60
2017-07-11T06:56:30.433Z,66.30
2017-07-11T06:58:57.947Z,64.80
2017-07-11T07:01:26.235Z,62.60
2017-07-11T07:03:53.735Z,62.50
2017-07-11T07:06:21.258Z,62.10
2017-07-11T07:08:48.755Z,63.90
2017-07-11T07:11:16.274Z,64.60
2017-07-11T07:13:43.775Z,63.10
2017-07-11T07:16:11.274Z,62.60
2017-07-11T07:18:39.556Z,61.90
2017-07-11T07:21:07.060Z,61.90
2017-07-11T07:23:34.579Z,60.60
2017-07-11T07:26:02.078Z,62.00
2017-07-11T07:28:29.593Z,60.10
2017-07-11T07:30:57.104Z,60.00
2017-07-11T07:33:24.627Z,59.80
2017-07-11T07:35:52.132Z,60.00
2017-07-11T07:38:19.641Z,60.60
2017-07-11T07:40:47.954Z,59.90
2017-07-11T07:43:15.451Z,60.30
2017-07-11T07:45:42.971Z,61.10
2017-07-11T07:48:10.471Z,61.40
2017-07-11T07:50:38.008Z,61.70
2017-07-11T07:53:05.513Z,60.20
2017-07-11T07:55:33.017Z,60.60
2017-07-11T07:58:00.539Z,60.40
2017-07-11T08:00:28.044Z,60.60
2017-07-11T08:02:55.564Z,60.00
2017-07-11T08:05:23.061Z,60.30
2017-07-11T08:07:50.592Z,59.50
2017-07-11T08:10:18.095Z,61.30
2017-07-11T08:12:45.609Z,62.30
2017-07-11T08:15:13.129Z,59.50
2017-07-11T08:17:40.650Z,58.90
2017-07-11T08:20:08.943Z,58.10
2017-07-11T08:22:37.214Z,56.80
2017-07-11T08:25:05.503Z,56.00
2017-07-11T08:27:33.291Z,55.90
2017-07-11T08:30:00.791Z,56.30
2017-07-11T08:32:28.307Z,55.70
2017-07-11T08:34:55.802Z,56.20
2017-07-11T08:37:23.319Z,56.80
2017-07-11T08:39:51.551Z,56.90
2017-07-11T08:42:19.075Z,58.10
2017-07-11T08:44:46.575Z,58.00
2017-07-11T08:47:14.851Z,59.10
2017-07-11T08:49:43.139Z,61.50
2017-07-11T08:52:10.651Z,61.40
2017-07-11T08:54:38.172Z,57.70
2017-07-11T08:57:05.675Z,56.20
2017-07-11T08:59:33.246Z,55.90
2017-07-11T09:02:00.752Z,55.10
2017-07-11T09:04:28.248Z,57.30
2017-07-11T09:06:55.776Z,56.00
2017-07-11T09:09:23.287Z,55.60
2017-07-11T09:11:51.570Z,58.00
2017-07-11T09:14:19.840Z,58.20
2017-07-11T09:16:47.363Z,58.20
2017-07-11T09:19:14.871Z,57.50
2017-07-11T09:21:43.159Z,56.70
2017-07-11T09:24:10.654Z,57.30
2017-07-11T09:26:38.151Z,58.00
2017-07-11T09:29:05.732Z,57.80
2017-07-11T09:31:33.198Z,56.40
2017-07-11T09:34:00.719Z,56.70
2017-07-11T09:36:28.216Z,57.60
2017-07-11T09:38:55.744Z,54.20
2017-07-11T09:41:24.008Z,55.70
2017-07-11T09:43:51.512Z,55.60
2017-07-11T09:46:19.034Z,54.10
2017-07-11T09:48:47.308Z,54.20
2017-07-11T09:51:15.595Z,55.90
2017-07-11T09:53:43.863Z,54.30
2017-07-11T09:56:12.156Z,54.80
2017-07-11T09:58:39.660Z,54.80
2017-07-11T10:01:07.159Z,56.30
2017-07-11T10:03:34.688Z,56.40
2017-07-11T10:06:02.199Z,55.80
2017-07-11T10:08:29.724Z,56.80
2017-07-11T10:10:57.232Z,54.60
2017-07-11T10:13:24.773Z,54.90
2017-07-11T10:15:52.271Z,56.30
2017-07-11T10:18:19.771Z,54.50
2017-07-11T10:20:48.064Z,52.10
2017-07-11T10:23:15.573Z,52.60
2017-07-11T10:25:43.098Z,52.30
2017-07-11T10:28:10.605Z,52.20
2017-07-11T10:30:38.139Z,52.20
2017-07-11T10:33:05.640Z,52.00
2017-07-11T10:35:33.903Z,54.10
2017-07-11T10:38:02.187Z,54.70
2017-07-11T10:40:29.699Z,54.60
2017-07-11T10:42:57.211Z,54.20
2017-07-11T10:45:24.708Z,53.80
2017-07-11T10:47:52.245Z,55.40
2017-07-11T10:50:19.752Z,52.40
2017-07-11T10:52:47.255Z,52.50
2017-07-11T10:55:14.774Z,51.20
2017-07-11T10:57:42.275Z,53.60
2017-07-11T11:00:09.792Z,52.60
2017-07-11T11:02:37.286Z,50.50
2017-07-11T11:05:04.806Z,52.40
2017-07-11T11:07:32.302Z,52.10
2017-07-11T11:09:59.803Z,52.80
2017-07-11T11:12:27.320Z,52.40
2017-07-11T11:14:54.819Z,49.60
2017-07-11T11:17:22.338Z,50.10
2017-07-11T11:19:49.835Z,50.70
2017-07-11T11:22:17.354Z,52.00
2017-07-11T11:24:44.852Z,51.00
2017-07-11T11:27:12.356Z,51.50
2017-07-11T11:29:39.879Z,51.00
2017-07-11T11:32:07.375Z,50.50
2017-07-11T11:34:34.895Z,52.30
2017-07-11T11:37:02.404Z,51.70
2017-07-11T11:39:29.935Z,51.60
2017-07-11T11:41:58.218Z,49.80
2017-07-11T11:44:25.731Z,49.80
2017-07-11T11:46:53.243Z,50.60
2017-07-11T11:49:20.743Z,51.40
2017-07-11T11:51:48.259Z,52.00
2017-07-11T11:54:15.755Z,52.70
2017-07-11T11:56:43.276Z,50.80
2017-07-11T11:59:10.775Z,50.20
2017-07-11T12:01:38.280Z,50.80
2017-07-11T12:04:05.807Z,50.70
2017-07-11T12:06:33.306Z,51.80
2017-07-11T12:09:00.836Z,51.70
2017-07-11T12:11:28.345Z,51.30
2017-07-11T12:13:55.865Z,51.20
2017-07-11T12:16:24.139Z,52.10
2017-07-11T12:18:52.403Z,50.80
2017-07-11T12:21:19.920Z,50.80
2017-07-11T12:23:47.414Z,51.50
2017-07-11T12:26:14.932Z,50.40
2017-07-11T12:28:42.435Z,50.20
2017-07-11T12:31:09.960Z,50.30
2017-07-11T12:33:37.461Z,53.90
2017-07-11T12:36:05.742Z,50.60
2017-07-11T12:38:34.025Z,51.00
2017-07-11T12:41:02.290Z,50.60
2017-07-11T12:43:29.807Z,50.60
2017-07-11T12:45:57.303Z,52.20
2017-07-11T12:48:24.831Z,51.80
2017-07-11T12:50:52.331Z,50.80
2017-07-11T12:53:19.840Z,52.10
2017-07-11T12:55:47.369Z,51.90
2017-07-11T12:58:14.917Z,52.10
2017-07-11T13:00:42.454Z,54.10
2017-07-11T13:03:10.741Z,50.50
2017-07-11T13:05:39.031Z,52.50
2017-07-11T13:08:06.536Z,51.90
2017-07-11T13:10:34.035Z,50.20
2017-07-11T13:13:02.310Z,51.20
2017-07-11T13:15:29.808Z,51.20
2017-07-11T13:17:57.343Z,52.10
2017-07-11T13:20:24.849Z,50.10
2017-07-11T13:22:52.375Z,50.50
2017-07-11T13:25:19.886Z,51.80
2017-07-11T13:27:47.407Z,51.10
2017-07-11T13:30:14.907Z,51.30
2017-07-11T13:32:42.403Z,52.20
2017-07-11T13:35:09.921Z,50.90
2017-07-11T13:37:37.424Z,52.00
2017-07-11T13:40:04.937Z,49.70
2017-07-11T13:42:32.435Z,50.60
2017-07-11T13:44:59.958Z,51.10
2017-07-11T13:47:27.462Z,51.40
2017-07-11T13:49:54.984Z,50.70
2017-07-11T13:52:23.247Z,51.70
2017-07-11T13:54:50.742Z,51.70
2017-07-11T13:57:18.267Z,51.20
2017-07-11T13:59:45.765Z,50.20
2017-07-11T14:02:13.283Z,50.60
2017-07-11T14:04:40.786Z,49.50
2017-07-11T14:07:08.307Z,50.10
2017-07-11T14:09:35.803Z,51.20
2017-07-11T14:12:03.303Z,50.10
2017-07-11T14:14:30.818Z,51.30
2017-07-11T14:16:58.315Z,52.40
2017-07-11T14:19:25.837Z,51.10
2017-07-11T14:21:53.339Z,52.60
2017-07-11T14:24:20.878Z,52.10
2017-07-11T14:26:48.394Z,51.20
2017-07-11T14:29:15.906Z,51.80
2017-07-11T14:31:43.427Z,51.20
2017-07-11T14:34:10.932Z,51.20
2017-07-11T14:36:38.454Z,51.10
2017-07-11T14:39:05.950Z,52.10
2017-07-11T14:41:33.467Z,52.40
2017-07-11T14:44:00.967Z,51.40
2017-07-11T14:46:28.491Z,51.10
2017-07-11T14:48:55.996Z,52.00
2017-07-11T14:51:24.263Z,52.20
2017-07-11T14:53:51.780Z,52.10
2017-07-11T14:56:19.284Z,53.70
2017-07-11T14:58:47.571Z,52.50
2017-07-11T15:01:16.293Z,52.80
2017-07-11T15:03:43.815Z,52.80
2017-07-11T15:06:12.080Z,53.50
2017-07-11T15:08:40.351Z,54.90
2017-07-11T15:11:07.868Z,54.80
2017-07-11T15:13:35.375Z,54.90
2017-07-11T15:16:02.899Z,55.80
2017-07-11T15:18:30.397Z,56.20
2017-07-11T15:20:57.935Z,57.20
2017-07-11T15:23:25.436Z,56.50
2017-07-11T15:25:52.936Z,56.90
2017-07-11T15:28:20.451Z,56.70
2017-07-11T15:30:47.963Z,57.10
2017-07-11T15:33:15.480Z,57.40
2017-07-11T15:35:42.983Z,58.00
2017-07-11T15:38:10.499Z,56.20
2017-07-11T15:40:38.003Z,58.40
2017-07-11T15:43:05.503Z,57.70
2017-07-11T15:45:33.024Z,57.00
2017-07-11T15:48:00.524Z,58.60
2017-07-11T15:50:28.043Z,59.00
2017-07-11T15:52:55.540Z,59.10
2017-07-11T15:55:23.077Z,59.20
2017-07-11T15:57:51.422Z,59.40
2017-07-11T16:00:19.741Z,58.70
2017-07-11T16:02:47.252Z,58.70
2017-07-11T16:05:14.750Z,59.70
2017-07-11T16:07:42.267Z,60.10
2017-07-11T16:10:09.772Z,60.80
2017-07-11T16:12:37.296Z,58.80
2017-07-11T16:15:04.806Z,58.50
2017-07-11T16:17:32.351Z,58.90
2017-07-11T16:19:59.861Z,59.00
2017-07-11T16:22:27.359Z,60.10
2017-07-11T16:24:54.876Z,60.30
2017-07-11T16:27:22.379Z,60.30
2017-07-11T16:29:49.898Z,62.00
2017-07-11T16:32:17.400Z,61.80
2017-07-11T16:34:44.936Z,62.00
2017-07-11T16:37:13.216Z,63.90
2017-07-11T16:39:41.491Z,63.20
2017-07-11T16:42:09.780Z,61.40
2017-07-11T16:44:37.275Z,61.30
2017-07-11T16:47:04.796Z,61.90
2017-07-11T16:49:32.291Z,62.60
2017-07-11T16:51:59.813Z,62.60
2017-07-11T16:54:27.316Z,62.80
2017-07-11T16:56:54.820Z,63.40
2017-07-11T16:59:23.101Z,64.20
2017-07-11T17:01:50.611Z,64.20
2017-07-11T17:04:18.127Z,65.50
2017-07-11T17:06:45.619Z,65.70
2017-07-11T17:09:13.142Z,65.10
2017-07-11T17:11:40.644Z,65.80
2017-07-11T17:14:08.146Z,65.70
2017-07-11T17:16:36.428Z,64.60
2017-07-11T17:19:03.927Z,64.50
2017-07-11T17:21:31.438Z,64.50
2017-07-11T17:23:58.935Z,63.30
2017-07-11T17:26:26.469Z,63.20
2017-07-11T17:28:53.972Z,63.50
2017-07-11T17:31:21.477Z,63.70
2017-07-11T17:33:49.819Z,63.50
2017-07-11T17:36:17.320Z,64.10
2017-07-11T17:38:44.840Z,64.20
2017-07-11T17:41:12.339Z,63.50
2017-07-11T17:43:39.855Z,63.60
2017-07-11T17:46:07.359Z,63.90
2017-07-11T17:48:34.859Z,62.80
2017-07-11T17:51:02.372Z,62.20
2017-07-11T17:53:29.879Z,63.00
2017-07-11T17:55:57.396Z,64.10
2017-07-11T17:58:24.898Z,64.80
2017-07-11T18:00:52.425Z,64.80
2017-07-11T18:03:19.923Z,64.40
2017-07-11T18:05:47.431Z,65.60
2017-07-11T18:08:14.943Z,65.20
2017-07-11T18:10:42.447Z,66.40
2017-07-11T18:13:09.964Z,66.30
2017-07-11T18:15:37.472Z,66.40
2017-07-11T18:18:04.995Z,66.20
2017-07-11T18:20:32.499Z,66.40
2017-07-11T18:23:00.000Z,67.10
2017-07-11T18:25:27.521Z,66.70
2017-07-11T18:27:55.026Z,67.60
2017-07-11T18:30:23.311Z,70.50
2017-07-11T18:32:50.814Z,70.50
2017-07-11T18:35:19.323Z,70.10
2017-07-11T18:37:46.828Z,70.30
2017-07-11T18:40:14.327Z,71.60
2017-07-11T18:42:41.849Z,72.30
2017-07-11T18:45:09.362Z,71.60
2017-07-11T18:47:37.660Z,71.40
2017-07-11T18:50:05.158Z,71.40
2017-07-11T18:52:32.680Z,72.80
2017-07-11T18:55:00.183Z,73.20
2017-07-11T18:57:27.699Z,73.60
2017-07-11T18:59:55.558Z,74.10
2017-07-11T19:02:23.068Z,74.30
2017-07-11T19:04:50.591Z,74.30
2017-07-11T19:07:18.090Z,74.30
2017-07-11T19:09:45.612Z,74.30
2017-07-11T19:12:13.120Z,74.20
2017-07-11T19:14:40.615Z,75.10
2017-07-11T19:17:08.139Z,76.80
2017-07-11T19:19:35.639Z,79.00
2017-07-11T19:22:03.155Z,81.20
2017-07-11T19:24:30.655Z,82.50
2017-07-11T19:26:58.176Z,83.60
2017-07-11T19:29:25.682Z,85.20
2017-07-11T19:31:53.208Z,86.80
2017-07-11T19:34:20.716Z,88.90
2017-07-11T19:36:48.218Z,88.60
2017-07-11T19:39:15.744Z,89.30
2017-07-11T19:41:43.252Z,90.30
2017-07-11T19:44:10.771Z,90.40
2017-07-11T19:46:38.280Z,90.80
2017-07-11T19:49:05.807Z,91.20
2017-07-11T19:51:33.307Z,91.30
2017-07-11T19:54:00.816Z,91.40
2017-07-11T19:56:28.343Z,91.60
2017-07-11T19:58:55.857Z,92.00
2017-07-11T20:01:23.375Z,91.90
2017-07-11T20:03:50.880Z,91.90
2017-07-11T20:06:18.409Z,91.90
2017-07-11T20:08:45.923Z,92.30
2017-07-11T20:11:13.428Z,92.40
2017-07-11T20:13:40.960Z,92.40
2017-07-11T20:16:08.455Z,92.70
2017-07-11T20:18:36.761Z,92.60
2017-07-11T20:21:04.270Z,92.50
2017-07-11T20:23:31.822Z,92.60
2017-07-11T20:25:59.331Z,92.50
2017-07-11T20:28:26.845Z,92.30
2017-07-11T20:30:54.348Z,92.50
2017-07-11T20:33:21.887Z,92.50
2017-07-11T20:35:49.408Z,92.80
2017-07-11T20:38:16.916Z,92.40
2017-07-11T20:40:44.435Z,92.10
2017-07-11T20:43:11.967Z,91.90
2017-07-11T20:45:39.479Z,91.80
2017-07-11T20:48:06.979Z,91.70
2017-07-11T20:50:34.509Z,91.60
2017-07-11T20:53:02.022Z,91.50
2017-07-11T20:55:29.537Z,91.50
2017-07-11T20:57:57.062Z,91.20
2017-07-11T21:00:24.568Z,91.10
2017-07-11T21:02:52.087Z,91.20
2017-07-11T21:05:19.588Z,91.30
2017-07-11T21:07:47.119Z,92.10
2017-07-11T21:10:14.631Z,92.20
2017-07-11T21:12:42.165Z,92.60
2017-07-11T21:15:09.663Z,92.00
2017-07-11T21:17:37.931Z,92.10
2017-07-11T21:20:06.219Z,92.60
2017-07-11T21:22:33.724Z,92.30
2017-07-11T21:25:01.240Z,92.70
2017-07-11T21:27:28.751Z,93.00
2017-07-11T21:29:56.595Z,92.80
2017-07-11T21:32:24.104Z,92.70
2017-07-11T21:34:51.631Z,92.40
2017-07-11T21:37:19.130Z,92.40
2017-07-11T21:39:47.407Z,92.10
2017-07-11T21:42:14.935Z,92.00
2017-07-11T21:44:42.433Z,92.00
2017-07-11T21:47:09.949Z,92.00
2017-07-11T21:49:37.443Z,92.00
2017-07-11T21:52:04.981Z,91.90
2017-07-11T21:54:32.486Z,91.80
2017-07-11T21:56:59.991Z,91.80
2017-07-11T21:59:27.817Z,91.70
2017-07-11T22:01:55.320Z,91.70
2017-07-11T22:04:22.836Z,91.90
2017-07-11T22:06:50.347Z,92.00
2017-07-11T22:09:18.643Z,92.10
2017-07-11T22:11:46.143Z,91.80
2017-07-11T22:14:13.646Z,91.80
2017-07-11T22:16:41.937Z,91.90
2017-07-11T22:19:09.495Z,91.90
2017-07-11T22:21:36.975Z,91.80
2017-07-11T22:24:04.475Z,92.00
2017-07-11T22:26:31.994Z,91.90
2017-07-11T22:28:59.496Z,92.10
2017-07-11T22:31:26.992Z,92.10
2017-07-11T22:33:54.511Z,92.40
2017-07-11T22:36:22.015Z,92.40
2017-07-11T22:38:49.531Z,92.40
2017-07-11T22:41:17.028Z,92.50
2017-07-11T22:43:44.555Z,92.50
2017-07-11T22:46:12.060Z,92.50
2017-07-11T22:48:39.577Z,92.60
2017-07-11T22:51:07.099Z,92.70
2017-07-11T22:53:34.599Z,92.80
2017-07-11T22:56:02.135Z,92.90
2017-07-11T22:58:29.630Z,92.90
2017-07-11T23:00:57.156Z,92.90
2017-07-11T23:03:24.658Z,92.90
2017-07-11T23:05:52.159Z,93.00
2017-07-11T23:08:19.681Z,93.10
2017-07-11T23:10:47.188Z,93.30
2017-07-11T23:13:14.712Z,93.20
2017-07-11T23:15:42.210Z,93.00
2017-07-11T23:18:10.507Z,93.20
2017-07-11T23:20:38.020Z,93.20
2017-07-11T23:23:05.523Z,93.10
2017-07-11T23:25:33.060Z,93.20
2017-07-11T23:28:01.336Z,93.00
2017-07-11T23:30:29.623Z,93.20
2017-07-11T23:32:57.128Z,92.90
2017-07-11T23:35:24.657Z,93.10
2017-07-11T23:37:52.164Z,93.10
2017-07-11T23:40:19.668Z,93.00
2017-07-11T23:42:47.196Z,93.10
2017-07-11T23:45:14.699Z,93.00
2017-07-11T23:47:42.215Z,92.80
2017-07-11T23:50:09.715Z,93.00
2017-07-11T23:52:37.235Z,93.00
2017-07-11T23:55:05.504Z,92.80
2017-07-11T23:57:33.012Z,92.90
